Time;durP1;ratioP1;P1;durP2;ratioP2;P2;SDS_P1;SDS_P2;PMS_P1;PMS_P2;Temp;Humidity;BMP_temperature;BMP_pressure;BME280_temperature;BME280_humidity;BME280_pressure;Samples;Min_cycle;Max_cycle;Signal;HPM_P1;HPM_P2
2023/10/09 01:32:57;;;;;;;4.83;2.60;;;10.10;99.90;;;;;;6134596;23;20442;-87
2023/10/09 01:46:06;;;;;;;4.33;3.20;;;10.00;99.90;;;;;;6067888;23;20406;-86
2023/10/09 02:19:57;;;;;;;4.27;3.80;;;10.00;99.90;;;;;;6089554;23;20456;-90
2023/10/09 02:22:26;;;;;;;4.60;4.20;;;10.00;99.90;;;;;;6136044;23;20405;-90
2023/10/09 02:24:58;;;;;;;8.20;4.17;;;10.00;99.90;;;;;;6130166;23;20383;-89
2023/10/09 02:27:45;;;;;;;6.60;3.50;;;10.00;99.90;;;;;;6131105;23;20386;-90
2023/10/09 02:30:26;;;;;;;9.33;3.83;;;10.00;99.90;;;;;;6130557;23;20440;-90
2023/10/09 02:32:58;;;;;;;3.83;3.53;;;10.20;99.90;;;;;;6133584;23;20852;-90
2023/10/09 02:35:38;;;;;;;4.70;3.63;;;10.50;99.90;;;;;;6151982;23;20368;-90
2023/10/09 02:38:12;;;;;;;6.50;4.03;;;10.20;99.90;;;;;;6152296;23;20393;-90
2023/10/09 02:41:18;;;;;;;4.60;4.17;;;;;;;;;;6152197;23;20496;-90
2023/10/09 02:43:34;;;;;;;4.83;4.33;;;10.10;99.90;;;;;;6134476;23;20379;-90
2023/10/09 02:46:12;;;;;;;5.50;4.80;;;10.10;99.90;;;;;;6132282;23;20464;-91
2023/10/09 02:48:42;;;;;;;7.37;4.03;;;10.10;99.90;;;;;;6133565;23;20883;-91
2023/10/09 02:51:17;;;;;;;5.10;4.60;;;10.10;99.90;;;;;;6130852;23;20448;-91
2023/10/09 02:53:48;;;;;;;5.67;4.70;;;;;;;;;;6130169;23;20393;-90
2023/10/09 02:56:18;;;;;;;5.67;4.97;;;;;;;;;;6130549;23;20416;-91
2023/10/09 02:58:48;;;;;;;9.73;5.03;;;;;;;;;;6134263;23;20754;-91
2023/10/09 03:01:15;;;;;;;7.63;4.50;;;;;;;;;;6130533;23;20522;-91
2023/10/09 03:03:46;;;;;;;6.10;5.07;;;;;;;;;;6129867;23;20412;-91
2023/10/09 03:06:19;;;;;;;4.07;3.63;;;10.10;99.90;;;;;;6147285;23;20468;-90
2023/10/09 03:08:47;;;;;;;4.37;3.97;;;;;;;;;;6133443;23;20416;-90
2023/10/09 03:11:15;;;;;;;8.37;5.60;;;10.10;99.90;;;;;;6132862;23;20480;-90
2023/10/09 03:14:00;;;;;;;6.30;4.60;;;10.10;99.90;;;;;;6149148;23;20401;-90
2023/10/09 03:16:28;;;;;;;5.37;4.73;;;;;;;;;;6154879;23;20401;-89
2023/10/09 03:18:56;;;;;;;7.83;4.93;;;;;;;;;;6151810;23;20424;-89
2023/10/09 03:21:25;;;;;;;7.60;5.60;;;10.00;99.90;;;;;;6139629;23;20460;-89
2023/10/09 03:23:52;;;;;;;8.57;5.53;;;;;;;;;;6137437;23;20444;-89
2023/10/09 03:26:20;;;;;;;6.53;5.00;;;;;;;;;;6137824;23;20401;-90
2023/10/09 03:28:50;;;;;;;5.43;4.90;;;10.10;99.90;;;;;;6137025;23;20467;-88
2023/10/09 03:31:51;;;;;;;5.83;4.90;;;10.00;99.90;;;;;;6136524;23;20456;-89
2023/10/09 03:34:18;;;;;;;7.87;5.17;;;;;;;;;;6133211;23;20391;-90
2023/10/09 03:36:48;;;;;;;9.00;5.20;;;10.00;99.90;;;;;;6134278;23;20388;-91
2023/10/09 03:39:34;;;;;;;11.10;4.27;;;10.10;99.90;;;;;;6134917;23;20412;-88
2023/10/09 03:42:05;;;;;;;7.00;4.70;;;;;;;;;;6135477;23;20417;-89
2023/10/09 03:44:34;;;;;;;5.10;4.60;;;10.00;99.90;;;;;;6135798;23;20383;-89
2023/10/09 03:47:02;;;;;;;5.97;5.40;;;9.80;99.90;;;;;;6132309;23;20419;-91
2023/10/09 03:49:29;;;;;;;6.53;5.00;;;9.80;99.90;;;;;;6131811;23;20443;-90
2023/10/09 03:51:59;;;;;;;9.60;4.73;;;10.00;99.90;;;;;;6134480;23;20400;-90
2023/10/09 03:54:29;;;;;;;6.47;4.47;;;;;;;;;;6154427;23;20409;-89
2023/10/09 03:56:58;;;;;;;5.27;4.50;;;10.10;99.90;;;;;;6154756;23;20381;-89
2023/10/09 03:59:30;;;;;;;5.40;4.03;;;;;;;;;;6149806;23;20433;-89
2023/10/09 04:01:58;;;;;;;6.60;4.63;;;;;;;;;;6134968;23;20397;-90
2023/10/09 04:04:29;;;;;;;5.20;3.80;;;9.90;99.90;;;;;;6133603;23;20419;-89
2023/10/09 04:06:59;;;;;;;6.60;4.13;;;9.90;99.90;;;;;;6134215;23;20397;-90
2023/10/09 04:09:39;;;;;;;4.90;4.20;;;9.90;99.90;;;;;;6133546;23;20417;-91
2023/10/09 04:12:22;;;;;;;7.60;4.10;;;9.90;99.90;;;;;;6137635;23;20396;-90
2023/10/09 04:14:54;;;;;;;7.40;5.33;;;10.00;99.90;;;;;;6154419;23;20453;-90
2023/10/09 04:17:34;;;;;;;6.33;4.53;;;;;;;;;;6154591;23;20443;-90
2023/10/09 04:22:51;;;;;;;4.77;4.27;;;9.60;99.90;;;;;;6152088;23;20364;-89
2023/10/09 04:25:25;;;;;;;7.57;4.70;;;9.90;99.90;;;;;;6140658;23;20476;-88
2023/10/09 04:27:59;;;;;;;4.73;4.20;;;9.80;99.90;;;;;;6156211;23;20348;-89
2023/10/09 04:30:27;;;;;;;6.70;4.70;;;9.70;99.90;;;;;;6155793;23;20471;-89
2023/10/09 04:32:59;;;;;;;6.47;4.67;;;;;;;;;;6156124;23;20404;-91
2023/10/09 04:35:29;;;;;;;6.87;5.30;;;;;;;;;;6141562;23;20417;-89
2023/10/09 04:38:05;;;;;;;6.53;4.67;;;9.60;99.90;;;;;;6141995;23;20406;-90
2023/10/09 04:40:48;;;;;;;7.00;4.80;;;;;;;;;;6136596;23;20755;-90
2023/10/09 04:43:21;;;;;;;7.50;4.27;;;9.70;99.90;;;;;;6145645;23;20397;-90
2023/10/09 04:46:07;;;;;;;8.05;5.25;;;9.50;99.90;;;;;;6135949;23;20402;-90
2023/10/09 04:48:52;;;;;;;9.53;5.43;;;9.80;99.90;;;;;;6146258;23;20201;-90
2023/10/09 04:51:22;;;;;;;9.53;5.77;;;;;;;;;;6147737;23;20560;-90
2023/10/09 04:54:00;;;;;;;7.10;5.40;;;9.80;99.90;;;;;;6152955;23;20405;-90
2023/10/09 04:56:31;;;;;;;10.67;5.10;;;9.90;99.90;;;;;;6152836;23;20421;-89
2023/10/09 04:59:18;;;;;;;8.07;5.43;;;9.80;99.90;;;;;;6154032;23;20402;-90
2023/10/09 05:01:57;;;;;;;8.33;6.10;;;;;;;;;;6155755;23;20385;-90
2023/10/09 05:04:39;;;;;;;10.53;6.40;;;;;;;;;;6154759;23;20407;-90
2023/10/09 05:07:22;;;;;;;8.73;5.40;;;;;;;;;;6155292;23;20401;-91
2023/10/09 05:10:14;;;;;;;11.43;5.77;;;9.90;99.90;;;;;;6135731;23;20433;-92
2023/10/09 05:12:46;;;;;;;11.40;6.93;;;;;;;;;;6134321;23;20424;-92
2023/10/09 05:15:14;;;;;;;6.97;5.80;;;;;;;;;;6135928;23;20405;-91
2023/10/09 05:17:51;;;;;;;5.57;5.00;;;;;;;;;;6133477;23;20900;-91
2023/10/09 05:26:26;;;;;;;6.13;4.50;;;9.70;99.90;;;;;;6131006;23;20397;-92
2023/10/09 05:28:52;;;;;;;5.53;4.40;;;;;;;;;;6149721;23;20397;-91
2023/10/09 05:37:10;;;;;;;8.20;5.63;;;;;;;;;;6132882;23;20505;-92
2023/10/09 05:39:42;;;;;;;7.33;4.20;;;;;;;;;;6133499;23;20460;-91
2023/10/09 05:42:18;;;;;;;8.93;4.90;;;9.80;99.90;;;;;;6131216;23;20429;-91
2023/10/09 05:47:53;;;;;;;6.03;4.03;;;9.70;99.90;;;;;;6129734;23;20372;-92
2023/10/09 05:50:34;;;;;;;5.00;4.27;;;;;;;;;;6132498;23;20452;-92
2023/10/09 05:53:17;;;;;;;5.47;4.97;;;9.70;99.90;;;;;;6154945;23;20400;-90
2023/10/09 06:04:33;;;;;;;5.03;4.60;;;9.70;99.90;;;;;;6132262;23;20437;-92
2023/10/09 06:07:23;;;;;;;7.33;4.67;;;9.70;99.90;;;;;;6134730;23;20421;-92
2023/10/09 06:09:52;;;;;;;4.60;3.60;;;9.60;99.90;;;;;;6142001;23;20425;-92
2023/10/09 06:15:51;;;;;;;6.90;4.43;;;9.50;99.90;;;;;;6044481;23;20407;-91
2023/10/09 06:18:26;;;;;;;7.00;4.40;;;9.60;99.90;;;;;;6045130;23;20419;-90
2023/10/09 06:22:09;;;;;;;6.50;4.07;;;9.70;99.90;;;;;;6104296;23;20495;-90
2023/10/09 06:24:33;;;;;;;4.33;3.93;;;;;;;;;;6150810;23;20401;-90
2023/10/09 06:27:43;;;;;;;6.57;5.77;;;;;;;;;;6144099;23;20366;-91
2023/10/09 10:53:22;;;;;;;8.97;7.40;;;11.10;99.90;;;;;;5989763;23;20436;-85
2023/10/09 10:56:18;;;;;;;9.77;7.13;;;11.50;99.90;;;;;;6195571;23;20391;-86
2023/10/09 10:59:11;;;;;;;7.80;7.00;;;11.50;99.90;;;;;;6199792;23;20414;-87
2023/10/09 11:03:13;;;;;;;7.97;7.20;;;11.40;99.90;;;;;;6191925;23;20691;-87
2023/10/09 11:15:29;;;;;;;10.50;8.23;;;11.30;99.90;;;;;;6082370;23;20443;-86
2023/10/09 11:18:26;;;;;;;;;;;;;;;;;;;;;
2023/10/09 11:21:40;;;;;;;12.90;7.93;;;11.40;99.90;;;;;;6170008;23;20383;-86
2023/10/09 11:24:33;;;;;;;11.83;9.63;;;11.50;99.90;;;;;;6139950;23;20440;-87
2023/10/09 11:27:50;;;;;;;16.77;10.17;;;11.50;99.90;;;;;;6183356;23;20396;-86
2023/10/09 11:31:11;;;;;;;8.77;7.50;;;11.60;99.90;;;;;;6166601;23;20404;-86
2023/10/09 11:34:35;;;;;;;10.97;8.53;;;11.60;99.90;;;;;;6172224;23;20955;-87
2023/10/09 11:53:43;;;;;;;10.80;8.40;;;11.70;99.90;;;;;;6077319;23;20425;-87
2023/10/09 12:20:14;;;;;;;11.60;10.03;;;11.90;99.90;;;;;;6197755;23;20450;-91
2023/10/09 12:23:36;;;;;;;9.40;8.27;;;12.00;99.90;;;;;;6201422;23;20453;-91
2023/10/09 14:03:54;;;;;;;10.90;9.10;;;11.90;99.90;;;;;;6206922;23;20413;-90
2023/10/09 14:17:24;;;;;;;12.53;11.20;;;11.80;99.90;;;;;;5990153;23;20419;-91
2023/10/09 14:28:27;;;;;;;13.17;10.47;;;11.90;99.90;;;;;;6155135;23;20482;-90
2023/10/09 14:31:16;;;;;;;11.80;10.70;;;11.80;99.90;;;;;;6182594;23;20466;-91
2023/10/09 14:37:26;;;;;;;;;;;;;;;;;;;;;
2023/10/09 14:40:18;;;;;;;16.93;10.73;;;11.70;99.90;;;;;;6208128;23;20497;-91
2023/10/09 14:43:08;;;;;;;13.40;11.03;;;11.80;99.90;;;;;;6202662;23;20465;-91
2023/10/09 14:46:20;;;;;;;12.50;10.60;;;11.90;99.90;;;;;;6213500;23;20371;-90
2023/10/09 14:52:53;;;;;;;15.83;10.20;;;11.90;99.90;;;;;;6198845;23;20481;-91
2023/10/09 14:58:18;;;;;;;13.73;11.67;;;11.80;99.90;;;;;;6175832;23;20447;-90
2023/10/09 15:00:56;;;;;;;12.50;11.17;;;11.70;99.90;;;;;;6211291;23;20423;-91
2023/10/09 15:03:57;;;;;;;17.63;12.20;;;11.70;99.90;;;;;;6206352;23;20413;-92
2023/10/09 15:09:38;;;;;;;16.17;11.23;;;11.80;99.90;;;;;;6204499;23;20458;-91
2023/10/09 15:12:12;;;;;;;15.83;11.10;;;11.80;99.90;;;;;;6207185;23;20438;-92
2023/10/09 15:21:32;;;;;;;11.83;10.63;;;11.70;99.90;;;;;;6123405;23;20874;-90
2023/10/09 16:01:14;;;;;;;;;;;;;;;;;;;;;
2023/10/09 16:03:49;;;;;;;11.47;10.23;;;11.70;99.90;;;;;;6198190;23;20445;-88
2023/10/09 16:06:33;;;;;;;13.80;11.17;;;11.70;99.90;;;;;;6196166;23;20406;-88
2023/10/09 16:09:11;;;;;;;12.80;11.23;;;11.70;99.90;;;;;;6195491;23;20430;-88
2023/10/09 16:11:40;;;;;;;15.70;10.93;;;;;;;;;;6191870;23;20494;-88
2023/10/09 16:14:24;;;;;;;13.33;9.93;;;;;;;;;;6189888;23;20415;-86
2023/10/09 16:17:06;;;;;;;12.17;10.30;;;11.60;99.90;;;;;;6191616;23;20937;-87
2023/10/09 16:19:45;;;;;;;13.23;11.90;;;11.60;99.90;;;;;;6191586;23;20434;-87
2023/10/09 16:22:18;;;;;;;12.60;11.00;;;11.60;99.90;;;;;;6193335;23;20726;-87
2023/10/09 16:25:00;;;;;;;14.37;11.57;;;11.60;99.90;;;;;;6203805;23;20510;-87
2023/10/09 16:27:31;;;;;;;14.07;12.27;;;11.60;99.90;;;;;;6203073;23;20858;-87
2023/10/09 16:29:58;;;;;;;14.30;11.70;;;;;;;;;;6201468;23;20401;-86
2023/10/09 16:32:27;;;;;;;12.43;11.13;;;11.60;99.90;;;;;;6195125;23;20446;-87
2023/10/09 16:34:54;;;;;;;14.17;11.23;;;;;;;;;;6194640;23;20505;-87
2023/10/09 16:37:22;;;;;;;11.23;10.23;;;;;;;;;;6192956;23;20403;-87
2023/10/09 16:39:49;;;;;;;10.73;9.60;;;11.50;99.90;;;;;;6205923;23;20427;-87
2023/10/09 16:42:16;;;;;;;13.40;10.90;;;11.80;99.90;;;;;;6214465;23;20396;-86
2023/10/09 16:44:46;;;;;;;10.70;9.73;;;11.30;99.90;;;;;;6198750;23;20454;-87
2023/10/09 16:47:13;;;;;;;12.17;10.97;;;11.60;99.90;;;;;;6194639;23;20400;-88
2023/10/09 16:49:41;;;;;;;12.77;11.50;;;11.40;99.90;;;;;;6195442;23;20415;-87
2023/10/09 16:52:11;;;;;;;19.17;16.80;;;11.00;99.90;;;;;;6194256;23;20438;-87
2023/10/09 16:54:38;;;;;;;14.27;11.37;;;11.30;99.90;;;;;;6193698;23;20407;-87
2023/10/09 16:57:08;;;;;;;15.50;11.30;;;11.30;99.90;;;;;;6193982;23;20504;-87
2023/10/09 16:59:36;;;;;;;12.97;11.63;;;11.40;99.90;;;;;;6195101;23;20945;-87
2023/10/09 17:02:06;;;;;;;16.60;12.47;;;;;;;;;;6195730;23;20479;-88
2023/10/09 17:04:34;;;;;;;16.63;13.48;;;11.40;99.90;;;;;;6194520;23;20742;-87
2023/10/09 17:07:04;;;;;;;13.63;12.20;;;11.30;99.90;;;;;;6194956;23;20187;-88
2023/10/09 17:09:34;;;;;;;13.43;12.03;;;11.30;99.90;;;;;;6195933;23;20431;-87
2023/10/09 17:12:03;;;;;;;12.60;11.10;;;11.30;99.90;;;;;;6194146;23;20956;-87
2023/10/09 17:14:34;;;;;;;17.13;11.90;;;11.30;99.90;;;;;;6193862;23;20407;-87
2023/10/09 17:17:02;;;;;;;12.00;10.90;;;11.50;99.90;;;;;;6196285;23;20394;-87
2023/10/09 17:19:32;;;;;;;16.83;12.33;;;11.00;99.90;;;;;;6195333;23;20427;-87
2023/10/09 17:22:10;;;;;;;13.10;11.60;;;;;;;;;;6196622;23;20434;-87
2023/10/09 17:24:39;;;;;;;14.03;11.50;;;11.20;99.90;;;;;;6196469;23;20464;-87
2023/10/09 17:27:08;;;;;;;14.97;11.93;;;11.20;99.90;;;;;;6196033;23;20465;-88
2023/10/09 17:29:37;;;;;;;13.90;12.50;;;11.20;99.90;;;;;;6199856;23;20474;-86
2023/10/09 17:32:07;;;;;;;14.73;13.13;;;11.10;99.90;;;;;;6198449;23;20971;-86
2023/10/09 17:34:39;;;;;;;13.33;11.60;;;;;;;;;;6198599;23;20407;-86
2023/10/09 17:37:06;;;;;;;15.23;13.60;;;;;;;;;;6197069;23;20469;-86
2023/10/09 17:39:33;;;;;;;15.77;14.17;;;11.20;99.90;;;;;;6196867;23;20427;-86
2023/10/09 17:42:04;;;;;;;15.00;12.03;;;11.20;99.90;;;;;;6201274;23;20388;-87
2023/10/09 17:44:31;;;;;;;19.10;13.30;;;;;;;;;;6214649;23;20379;-86
2023/10/09 17:46:59;;;;;;;14.20;12.33;;;11.20;99.90;;;;;;6214209;23;20391;-86
2023/10/09 17:49:26;;;;;;;11.57;10.33;;;;;;;;;;6203467;23;20432;-87
2023/10/09 17:51:53;;;;;;;14.10;12.37;;;11.20;99.90;;;;;;6193570;23;20427;-86
2023/10/09 17:54:23;;;;;;;13.83;11.20;;;11.30;99.90;;;;;;6193141;23;20435;-86
2023/10/09 17:56:50;;;;;;;11.40;9.97;;;11.20;99.90;;;;;;6194692;23;20437;-88
2023/10/09 17:59:19;;;;;;;12.20;10.90;;;11.20;99.90;;;;;;6193868;23;20457;-88
2023/10/09 18:01:45;;;;;;;11.80;9.37;;;11.20;99.90;;;;;;6202425;23;20431;-86
2023/10/09 18:04:13;;;;;;;13.60;12.20;;;10.80;99.90;;;;;;6199438;23;20882;-86
2023/10/09 18:06:42;;;;;;;12.37;10.47;;;11.10;99.90;;;;;;6199478;23;20738;-86
2023/10/09 18:09:16;;;;;;;12.10;10.70;;;11.10;99.90;;;;;;6195013;23;20431;-87
2023/10/09 18:11:44;;;;;;;15.40;11.80;;;11.10;99.90;;;;;;6192489;23;20455;-87
2023/10/09 18:14:13;;;;;;;11.83;10.60;;;11.10;99.90;;;;;;6192708;23;20439;-86
2023/10/09 18:16:49;;;;;;;14.40;11.40;;;11.10;99.90;;;;;;6199038;23;20411;-86
2023/10/09 18:19:20;;;;;;;15.57;11.50;;;11.10;99.90;;;;;;6195754;23;20462;-86
2023/10/09 18:22:04;;;;;;;11.77;10.00;;;11.20;99.90;;;;;;6194715;23;20419;-85
2023/10/09 18:28:19;;;;;;;13.97;11.50;;;11.10;99.90;;;;;;6192006;23;20899;-86
2023/10/09 18:30:49;;;;;;;13.47;11.43;;;;;;;;;;6182921;23;20969;-86
2023/10/09 18:33:17;;;;;;;13.90;11.53;;;11.20;99.90;;;;;;6200286;23;20500;-86
2023/10/09 18:35:44;;;;;;;12.60;11.30;;;;;;;;;;6200665;23;20459;-87
2023/10/09 18:38:16;;;;;;;14.70;13.10;;;;;;;;;;6203126;23;20406;-87
2023/10/09 18:40:47;;;;;;;13.77;12.33;;;11.10;99.90;;;;;;6202385;23;20415;-87
2023/10/09 18:43:19;;;;;;;15.23;13.50;;;11.10;99.90;;;;;;6202405;23;20392;-87
2023/10/09 18:45:46;;;;;;;13.73;12.33;;;11.10;99.90;;;;;;6205843;23;20417;-86
2023/10/09 18:48:17;;;;;;;20.57;15.97;;;11.20;99.90;;;;;;6201881;23;20407;-87
2023/10/09 18:50:45;;;;;;;22.97;15.97;;;11.20;99.90;;;;;;6202033;23;20392;-87
2023/10/09 18:53:13;;;;;;;12.50;11.30;;;10.40;99.90;;;;;;6198728;23;20502;-87
2023/10/09 18:55:40;;;;;;;14.53;11.60;;;11.10;99.90;;;;;;6197812;23;20443;-87
2023/10/09 18:58:09;;;;;;;15.13;12.17;;;;;;;;;;6199882;23;20419;-87
2023/10/09 19:00:41;;;;;;;13.80;12.27;;;;;;;;;;6197321;23;20467;-88
2023/10/09 19:03:10;;;;;;;15.47;11.10;;;11.10;99.90;;;;;;6197326;23;20388;-87
2023/10/09 19:05:41;;;;;;;14.60;13.20;;;11.40;99.90;;;;;;6197113;23;20418;-87
2023/10/09 19:08:10;;;;;;;15.07;12.00;;;11.20;99.90;;;;;;6197235;23;20399;-87
2023/10/09 19:10:37;;;;;;;13.63;11.47;;;11.20;99.90;;;;;;6194442;23;20744;-87
2023/10/09 19:13:10;;;;;;;17.10;11.87;;;11.20;99.90;;;;;;6193620;23;20445;-87
2023/10/09 19:16:05;;;;;;;14.70;12.30;;;11.20;99.90;;;;;;6191578;23;20403;-88
2023/10/09 19:18:44;;;;;;;12.97;11.57;;;11.20;99.90;;;;;;6191975;23;20466;-88
2023/10/09 19:21:18;;;;;;;12.67;10.83;;;11.10;99.90;;;;;;6202279;23;20458;-88
2023/10/09 19:23:50;;;;;;;14.53;10.80;;;11.20;99.90;;;;;;6204849;23;20391;-88
2023/10/09 19:26:21;;;;;;;13.70;10.87;;;11.10;99.90;;;;;;6210029;23;20395;-87
2023/10/09 19:32:13;;;;;;;15.13;11.30;;;11.00;99.90;;;;;;6211093;23;20442;-87
2023/10/09 19:35:10;;;;;;;17.33;11.90;;;11.20;99.90;;;;;;6209125;23;20434;-87
2023/10/09 19:41:30;;;;;;;13.67;11.80;;;11.20;99.90;;;;;;6198349;23;20391;-91
2023/10/09 19:44:24;;;;;;;14.60;10.80;;;11.20;99.90;;;;;;6198943;23;20461;-88
2023/10/09 19:46:51;;;;;;;13.40;11.90;;;;;;;;;;6213153;23;20419;-87
2023/10/09 19:49:22;;;;;;;16.70;13.33;;;;;;;;;;6213672;23;20422;-86
2023/10/09 19:51:54;;;;;;;16.37;12.77;;;11.20;99.90;;;;;;6204391;23;20387;-89
2023/10/09 19:54:22;;;;;;;14.10;12.33;;;;;;;;;;6195566;23;21015;-88
2023/10/09 19:56:49;;;;;;;14.63;12.07;;;;;;;;;;6195863;23;20421;-88
2023/10/09 19:59:22;;;;;;;17.50;13.53;;;11.20;99.90;;;;;;6205212;23;20430;-88
2023/10/09 20:01:52;;;;;;;16.37;11.73;;;;;;;;;;6215341;23;20434;-87
2023/10/09 20:04:25;;;;;;;15.90;12.70;;;11.20;99.90;;;;;;6205178;23;20726;-88
2023/10/09 20:07:13;;;;;;;14.43;12.50;;;11.20;99.90;;;;;;6197839;23;20403;-87
2023/10/09 20:09:41;;;;;;;16.10;13.30;;;;;;;;;;6200741;23;20437;-88
2023/10/09 20:12:08;;;;;;;16.37;13.60;;;;;;;;;;6205147;23;20391;-88
2023/10/09 20:15:05;;;;;;;19.10;16.83;;;11.10;99.90;;;;;;6203599;23;20434;-88
2023/10/09 20:17:32;;;;;;;19.33;15.00;;;11.30;99.90;;;;;;6199626;23;20415;-88
2023/10/09 20:20:07;;;;;;;17.37;13.73;;;;;;;;;;6197845;23;20411;-87
2023/10/09 20:22:38;;;;;;;18.73;13.63;;;;;;;;;;6196507;23;20399;-87
2023/10/09 20:25:25;;;;;;;18.57;14.90;;;11.00;99.90;;;;;;6199792;23;20384;-90
2023/10/09 20:28:07;;;;;;;18.40;14.60;;;10.90;99.90;;;;;;6214525;23;20418;-90
2023/10/09 20:31:17;;;;;;;21.60;15.40;;;10.90;99.90;;;;;;6215275;23;20372;-90
2023/10/09 20:34:20;;;;;;;20.17;14.07;;;10.90;99.90;;;;;;6206226;23;20431;-90
2023/10/09 21:00:37;;;;;;;23.97;17.80;;;;;;;;;;5936055;24;20452;-87
2023/10/09 21:17:17;;;;;;;25.30;16.37;;;11.00;99.90;;;;;;6190955;23;20446;-89
2023/10/09 21:20:09;;;;;;;22.43;16.93;;;11.10;99.90;;;;;;6195508;23;20434;-88
2023/10/09 21:22:42;;;;;;;22.10;16.50;;;11.00;99.90;;;;;;6196029;23;20715;-89
2023/10/09 21:28:20;;;;;;;20.27;15.90;;;11.00;99.90;;;;;;6207320;23;20399;-90
2023/10/09 21:31:07;;;;;;;20.40;14.97;;;11.00;99.90;;;;;;6192881;23;20384;-90
2023/10/09 21:33:35;;;;;;;21.37;15.63;;;11.00;99.90;;;;;;6192360;23;20438;-89
2023/10/09 21:39:12;;;;;;;18.40;15.30;;;;;;;;;;6112397;23;20415;-88
2023/10/09 21:41:52;;;;;;;21.30;16.00;;;11.00;99.90;;;;;;6203241;23;20408;-89
2023/10/09 21:47:36;;;;;;;22.30;16.23;;;10.90;99.90;;;;;;6130277;23;20875;-89
2023/10/09 21:50:24;;;;;;;22.07;16.10;;;10.90;99.90;;;;;;6130033;23;20496;-89
2023/10/09 21:53:50;;;;;;;23.20;17.97;;;10.90;99.90;;;;;;6174036;23;20774;-89
2023/10/09 21:59:12;;;;;;;24.27;18.47;;;10.90;99.90;;;;;;6090516;23;20812;-89
2023/10/09 22:01:41;;;;;;;24.13;17.30;;;10.90;99.90;;;;;;6116811;23;20405;-88
2023/10/09 22:04:15;;;;;;;22.03;17.40;;;10.90;99.90;;;;;;6161622;23;20383;-88
2023/10/09 22:06:46;;;;;;;24.73;17.47;;;10.90;99.90;;;;;;6212825;23;20391;-88
2023/10/09 22:09:23;;;;;;;28.30;17.60;;;;;;;;;;6194187;23;20457;-87
2023/10/09 22:11:52;;;;;;;23.53;17.40;;;11.20;99.90;;;;;;6192490;23;20407;-86
2023/10/09 22:14:24;;;;;;;23.10;17.93;;;10.90;99.90;;;;;;6191201;23;20441;-87
2023/10/09 22:16:59;;;;;;;22.80;15.53;;;10.90;99.90;;;;;;6196145;23;20426;-87
2023/10/09 22:19:52;;;;;;;21.47;15.60;;;10.80;99.90;;;;;;6211294;23;20435;-87
2023/10/09 22:22:43;;;;;;;18.97;15.67;;;10.80;99.90;;;;;;6213645;23;20368;-87
2023/10/09 22:25:21;;;;;;;19.30;14.30;;;10.80;99.90;;;;;;6209750;23;20407;-88
2023/10/09 22:27:51;;;;;;;23.80;16.07;;;;;;;;;;6211304;23;20474;-88
2023/10/09 22:30:29;;;;;;;22.97;15.33;;;10.60;99.90;;;;;;6200339;23;20437;-88
2023/10/09 22:33:02;;;;;;;22.10;16.13;;;10.90;99.90;;;;;;6198488;23;20407;-88
2023/10/09 22:35:33;;;;;;;23.87;15.30;;;10.90;99.90;;;;;;6198767;23;20458;-87
2023/10/09 22:38:15;;;;;;;20.67;15.80;;;10.90;99.90;;;;;;6204190;23;20399;-87
2023/10/09 22:40:48;;;;;;;16.53;13.60;;;;;;;;;;6208558;23;20419;-87
2023/10/09 22:43:20;;;;;;;19.73;13.20;;;;;;;;;;6211768;23;20383;-88
2023/10/09 22:51:30;;;;;;;23.37;14.23;;;10.80;99.90;;;;;;6190920;23;20408;-88
2023/10/09 22:54:11;;;;;;;19.50;14.20;;;10.80;99.90;;;;;;6198084;23;20439;-87
2023/10/09 22:59:43;;;;;;;20.37;14.37;;;;;;;;;;6186731;23;20750;-88
2023/10/09 23:05:04;;;;;;;20.67;13.50;;;10.80;99.90;;;;;;6194733;23;20398;-87
2023/10/09 23:07:32;;;;;;;19.40;14.70;;;;;;;;;;6201763;23;20414;-88
2023/10/09 23:10:15;;;;;;;23.00;14.30;;;10.80;99.90;;;;;;6191028;23;20474;-88
2023/10/09 23:12:46;;;;;;;23.03;15.23;;;;;;;;;;6192519;23;20403;-88
2023/10/09 23:18:09;;;;;;;20.73;14.43;;;;;;;;;;6209988;23;20387;-87
2023/10/09 23:20:48;;;;;;;20.43;15.27;;;10.80;99.90;;;;;;6214050;23;20406;-86
2023/10/09 23:23:24;;;;;;;16.00;13.40;;;11.30;99.90;;;;;;6214062;23;20387;-86
2023/10/09 23:25:53;;;;;;;24.50;13.90;;;10.80;99.90;;;;;;6214168;23;20375;-87
2023/10/09 23:31:04;;;;;;;18.40;13.30;;;11.00;99.90;;;;;;6215694;23;20391;-86
2023/10/09 23:33:33;;;;;;;18.57;12.87;;;10.80;99.90;;;;;;6215782;23;20399;-87
2023/10/09 23:36:05;;;;;;;16.87;13.80;;;10.80;99.90;;;;;;6198576;23;20466;-88
2023/10/09 23:38:36;;;;;;;20.20;13.60;;;10.90;99.90;;;;;;6190367;23;20404;-88
2023/10/09 23:41:09;;;;;;;21.67;14.50;;;10.90;99.90;;;;;;6190518;23;20502;-88
2023/10/09 23:43:48;;;;;;;25.23;14.20;;;10.90;99.90;;;;;;6190169;23;20433;-88
2023/10/09 23:46:16;;;;;;;23.60;14.07;;;;;;;;;;6192268;23;20403;-88
2023/10/09 23:48:52;;;;;;;16.53;12.13;;;;;;;;;;6194073;23;20427;-88
2023/10/09 23:51:26;;;;;;;19.97;12.60;;;10.90;99.90;;;;;;6194002;23;20467;-88
2023/10/09 23:54:01;;;;;;;18.50;13.17;;;;;;;;;;6192428;23;20510;-88
2023/10/09 23:56:45;;;;;;;15.40;12.40;;;11.00;99.90;;;;;;6192910;23;20438;-88
2023/10/09 23:59:16;;;;;;;17.13;12.40;;;10.90;99.90;;;;;;6191182;23;20442;-88
